createdAt,value
2018-02-25T00:00:46.015Z,320.57
2018-02-25T00:03:13.628Z,345.70
2018-02-25T00:05:42.176Z,386.83
2018-02-25T00:08:09.762Z,400.57
2018-02-25T00:10:37.358Z,382.50
2018-02-25T00:13:04.940Z,375.23
2018-02-25T00:15:32.693Z,385.27
2018-02-25T00:18:00.282Z,448.33
2018-02-25T00:20:27.875Z,454.47
2018-02-25T00:22:56.222Z,518.83
2018-02-25T00:25:23.800Z,535.17
2018-02-25T00:27:52.234Z,540.57
2018-02-25T00:30:19.803Z,536.17
2018-02-25T00:32:47.462Z,572.17
2018-02-25T00:35:15.048Z,634.53
2018-02-25T00:37:42.624Z,589.40
2018-02-25T00:40:10.959Z,577.03
2018-02-25T00:42:38.739Z,553.40
2018-02-25T00:45:06.323Z,541.27
2018-02-25T00:47:34.764Z,535.13
2018-02-25T00:50:02.340Z,533.27
2018-02-25T00:52:29.909Z,522.73
2018-02-25T00:54:58.252Z,524.70
2018-02-25T00:57:25.840Z,509.10
2018-02-25T00:59:53.423Z,503.43
2018-02-25T01:02:21.010Z,499.63
2018-02-25T01:04:48.586Z,487.93
2018-02-25T01:07:17.203Z,486.03
2018-02-25T01:09:47.932Z,467.33
2018-02-25T01:12:16.563Z,450.47
2018-02-25T01:14:46.463Z,422.40
2018-02-25T01:17:15.053Z,435.37
2018-02-25T01:19:42.784Z,412.13
2018-02-25T01:22:11.209Z,412.73
2018-02-25T01:24:40.671Z,398.07
2018-02-25T01:27:08.309Z,415.70
2018-02-25T01:29:36.656Z,394.90
2018-02-25T01:32:04.260Z,393.90
2018-02-25T01:34:32.625Z,392.93
2018-02-25T01:37:01.041Z,385.70
2018-02-25T01:39:29.251Z,387.60
2018-02-25T01:41:58.802Z,389.47
2018-02-25T01:44:27.463Z,378.53
2018-02-25T01:46:56.992Z,369.53
2018-02-25T01:49:26.820Z,366.40
2018-02-25T01:51:56.632Z,363.17
2018-02-25T01:54:25.724Z,348.80
2018-02-25T01:56:54.312Z,354.27
2018-02-25T01:59:21.920Z,353.73
2018-02-25T02:01:49.520Z,346.10
2018-02-25T02:04:17.114Z,337.70
2018-02-25T02:06:46.693Z,333.13
2018-02-25T02:09:15.310Z,333.13
2018-02-25T02:11:42.927Z,335.80
2018-02-25T02:14:10.516Z,321.90
2018-02-25T02:16:39.116Z,315.73
2018-02-25T02:19:06.679Z,319.97
2018-02-25T02:21:34.252Z,317.80
2018-02-25T02:24:01.833Z,310.47
2018-02-25T02:26:30.031Z,320.77
2018-02-25T02:28:57.660Z,308.60
2018-02-25T02:31:25.242Z,317.30
2018-02-25T02:33:53.088Z,306.93
2018-02-25T02:36:20.670Z,305.47
2018-02-25T02:38:48.259Z,297.47
2018-02-25T02:41:17.928Z,296.87
2018-02-25T02:43:46.328Z,298.43
2018-02-25T02:46:16.214Z,285.43
2018-02-25T02:48:44.923Z,285.37
2018-02-25T02:51:14.588Z,304.67
2018-02-25T02:53:44.801Z,286.87
2018-02-25T02:56:13.612Z,278.87
2018-02-25T02:58:43.423Z,283.37
2018-02-25T03:01:12.487Z,269.53
2018-02-25T03:03:42.331Z,260.17
2018-02-25T03:06:11.018Z,269.70
2018-02-25T03:08:39.485Z,263.83
2018-02-25T03:11:08.588Z,263.30
2018-02-25T03:13:38.809Z,256.37
2018-02-25T03:16:08.420Z,260.67
2018-02-25T03:18:37.511Z,261.13
2018-02-25T03:21:07.315Z,256.60
2018-02-25T03:23:36.902Z,255.13
2018-02-25T03:26:05.200Z,254.87
2018-02-25T03:28:33.942Z,247.47
2018-02-25T03:31:03.395Z,254.03
2018-02-25T03:33:32.164Z,242.60
2018-02-25T03:36:02.426Z,245.27
2018-02-25T03:38:30.765Z,243.73
2018-02-25T03:41:00.474Z,230.80
2018-02-25T03:43:30.235Z,227.13
2018-02-25T03:45:59.730Z,235.07
2018-02-25T03:48:28.985Z,239.27
2018-02-25T03:50:59.085Z,226.37
2018-02-25T03:53:28.979Z,228.17
2018-02-25T03:55:57.606Z,232.23
2018-02-25T03:58:26.796Z,228.90
2018-02-25T04:00:56.706Z,228.90
2018-02-25T04:03:25.673Z,226.90
2018-02-25T04:05:54.571Z,226.03
2018-02-25T04:08:24.727Z,222.17
2018-02-25T04:10:53.697Z,215.67
2018-02-25T04:13:22.660Z,224.40
2018-02-25T04:15:51.377Z,218.03
2018-02-25T04:18:19.951Z,224.20
2018-02-25T04:20:49.325Z,217.47
2018-02-25T04:23:20.085Z,205.30
2018-02-25T04:25:49.443Z,208.33
2018-02-25T04:28:19.096Z,207.03
2018-02-25T04:30:47.570Z,204.97
2018-02-25T04:33:17.487Z,204.93
2018-02-25T04:35:46.864Z,202.10
2018-02-25T04:38:15.470Z,194.40
2018-02-25T04:40:46.802Z,197.97
2018-02-25T04:43:16.323Z,198.37
2018-02-25T04:45:46.236Z,197.23
2018-02-25T04:48:17.276Z,195.97
2018-02-25T04:50:46.369Z,188.23
2018-02-25T04:53:15.560Z,197.83
2018-02-25T04:55:45.128Z,187.70
2018-02-25T04:58:15.083Z,189.17
2018-02-25T05:00:43.284Z,187.20
2018-02-25T05:03:12.009Z,182.77
2018-02-25T05:05:41.129Z,187.10
2018-02-25T05:08:11.247Z,177.00
2018-02-25T05:10:42.088Z,181.60
2018-02-25T05:13:10.786Z,176.43
2018-02-25T05:15:40.175Z,184.33
2018-02-25T05:18:08.442Z,174.73
2018-02-25T05:20:37.045Z,174.80
2018-02-25T05:23:07.050Z,172.83
2018-02-25T05:25:35.440Z,171.97
2018-02-25T05:28:03.638Z,166.27
2018-02-25T05:30:31.232Z,166.40
2018-02-25T05:33:00.137Z,166.27
2018-02-25T05:35:28.924Z,160.30
2018-02-25T05:37:59.384Z,162.83
2018-02-25T05:40:28.514Z,169.63
2018-02-25T05:42:56.146Z,156.90
2018-02-25T05:45:24.424Z,159.67
2018-02-25T05:47:52.753Z,161.97
2018-02-25T05:50:21.377Z,160.23
2018-02-25T05:52:49.969Z,148.57
2018-02-25T05:55:22.145Z,155.80
2018-02-25T05:57:50.868Z,150.20
2018-02-25T06:00:20.189Z,147.83
2018-02-25T06:02:48.850Z,152.40
2018-02-25T06:05:16.444Z,146.80
2018-02-25T06:07:46.022Z,148.93
2018-02-25T06:10:14.127Z,149.77
2018-02-25T06:12:41.802Z,148.30
2018-02-25T06:15:12.934Z,143.70
2018-02-25T06:17:41.388Z,135.93
2018-02-25T06:20:09.508Z,144.13
2018-02-25T06:22:37.593Z,144.47
2018-02-25T06:25:05.693Z,141.50
2018-02-25T06:27:34.735Z,137.50
2018-02-25T06:30:03.656Z,134.53
2018-02-25T06:32:32.353Z,137.30
2018-02-25T06:35:00.481Z,128.60
2018-02-25T06:37:29.669Z,136.90
2018-02-25T06:39:58.011Z,137.87
2018-02-25T06:42:25.599Z,138.67
2018-02-25T06:44:53.949Z,129.73
2018-02-25T06:47:21.523Z,127.07
2018-02-25T06:49:49.111Z,133.77
2018-02-25T06:52:16.712Z,129.60
2018-02-25T06:54:44.318Z,134.40
2018-02-25T06:57:12.679Z,125.23
2018-02-25T06:59:41.086Z,128.47
2018-02-25T07:02:08.721Z,121.73
2018-02-25T07:04:36.315Z,122.00
2018-02-25T07:07:03.909Z,121.90
2018-02-25T07:09:31.503Z,124.30
2018-02-25T07:11:59.091Z,121.40
2018-02-25T07:14:26.677Z,121.70
2018-02-25T07:16:54.272Z,119.37
2018-02-25T07:19:21.873Z,121.00
2018-02-25T07:21:49.467Z,112.47
2018-02-25T07:24:17.086Z,109.87
2018-02-25T07:26:44.814Z,118.37
2018-02-25T07:29:12.548Z,114.00
2018-02-25T07:31:40.126Z,115.30
2018-02-25T07:34:07.727Z,115.27
2018-02-25T07:36:35.305Z,111.90
2018-02-25T07:39:02.904Z,109.63
2018-02-25T07:41:30.485Z,102.97
2018-02-25T07:43:59.031Z,111.70
2018-02-25T07:46:27.397Z,108.50
2018-02-25T07:48:55.016Z,104.30
2018-02-25T07:51:22.604Z,108.47
2018-02-25T07:53:50.204Z,110.20
2018-02-25T07:56:18.541Z,102.43
2018-02-25T07:58:46.179Z,101.93
2018-02-25T08:01:13.845Z,105.80
2018-02-25T08:03:41.434Z,100.27
2018-02-25T08:06:09.041Z,97.87
2018-02-25T08:08:36.650Z,99.73
2018-02-25T08:11:04.423Z,100.17
2018-02-25T08:13:32.175Z,102.00
2018-02-25T08:15:59.741Z,99.00
2018-02-25T08:18:27.495Z,95.73
2018-02-25T08:20:55.078Z,98.93
2018-02-25T08:23:22.655Z,94.77
2018-02-25T08:25:50.315Z,93.23
2018-02-25T08:28:17.899Z,91.77
2018-02-25T08:30:45.551Z,92.27
2018-02-25T08:33:13.113Z,94.13
2018-02-25T08:35:40.739Z,90.73
2018-02-25T08:38:09.095Z,89.63
2018-02-25T08:40:37.660Z,91.83
2018-02-25T08:43:05.227Z,91.50
2018-02-25T08:45:32.795Z,88.73
2018-02-25T08:48:00.386Z,85.63
2018-02-25T08:50:27.950Z,83.70
2018-02-25T08:52:55.596Z,82.57
2018-02-25T08:55:23.209Z,81.07
2018-02-25T08:57:50.975Z,84.67
2018-02-25T09:00:18.573Z,89.37
2018-02-25T09:02:46.137Z,88.53
2018-02-25T09:05:14.562Z,86.67
2018-02-25T09:07:42.138Z,80.50
2018-02-25T09:10:09.724Z,79.20
2018-02-25T09:12:37.980Z,81.43
2018-02-25T09:15:06.396Z,78.43
2018-02-25T09:17:34.811Z,79.90
2018-02-25T09:20:02.419Z,77.43
2018-02-25T09:22:29.999Z,79.47
2018-02-25T09:24:57.591Z,72.67
2018-02-25T09:27:25.366Z,77.67
2018-02-25T09:29:52.956Z,76.90
2018-02-25T09:32:20.538Z,74.63
2018-02-25T09:34:48.194Z,75.43
2018-02-25T09:37:15.791Z,75.10
2018-02-25T09:39:43.402Z,73.17
2018-02-25T09:42:10.975Z,73.87
2018-02-25T09:44:38.590Z,74.10
2018-02-25T09:47:07.008Z,71.67
2018-02-25T09:55:46.736Z,67.73
2018-02-25T09:58:14.791Z,68.60
2018-02-25T10:00:42.447Z,67.27
2018-02-25T10:03:10.212Z,64.33
2018-02-25T10:05:37.926Z,67.37
2018-02-25T10:08:05.527Z,67.53
2018-02-25T10:10:33.132Z,66.63
2018-02-25T10:13:01.492Z,63.03
2018-02-25T10:15:29.852Z,65.57
2018-02-25T10:17:57.429Z,60.97
2018-02-25T10:20:25.028Z,60.30
2018-02-25T10:22:52.603Z,63.13
2018-02-25T10:25:26.585Z,63.77
2018-02-25T10:27:54.244Z,61.50
2018-02-25T10:30:21.859Z,60.73
2018-02-25T10:32:49.447Z,58.47
2018-02-25T10:35:17.835Z,61.13
2018-02-25T10:37:45.444Z,60.90
2018-02-25T10:40:13.095Z,58.67
2018-02-25T10:42:40.672Z,58.30
2018-02-25T10:45:08.266Z,57.67
2018-02-25T10:47:36.694Z,61.43
2018-02-25T10:50:04.312Z,60.27
2018-02-25T10:52:31.886Z,59.00
2018-02-25T10:54:59.475Z,55.17
2018-02-25T10:57:27.177Z,58.93
2018-02-25T10:59:56.637Z,54.30
2018-02-25T11:02:24.262Z,54.40
2018-02-25T11:04:51.849Z,54.23
2018-02-25T11:07:19.434Z,53.70
2018-02-25T11:09:46.999Z,59.50
2018-02-25T11:12:14.603Z,51.33
2018-02-25T11:14:42.286Z,55.83
2018-02-25T11:17:09.884Z,55.47
2018-02-25T11:19:38.920Z,56.40
2018-02-25T11:22:06.594Z,54.60
2018-02-25T11:24:34.187Z,53.70
2018-02-25T11:27:01.784Z,54.83
2018-02-25T11:29:29.366Z,50.93
2018-02-25T11:31:57.169Z,51.33
2018-02-25T11:34:25.590Z,52.47
2018-02-25T11:36:53.296Z,49.53
2018-02-25T11:39:20.984Z,49.93
2018-02-25T11:41:49.404Z,50.53
2018-02-25T11:44:17.086Z,48.07
2018-02-25T11:46:44.682Z,48.50
2018-02-25T11:49:12.287Z,47.53
2018-02-25T11:51:40.060Z,49.30
2018-02-25T11:54:09.127Z,50.33
2018-02-25T11:56:37.570Z,46.93
2018-02-25T11:59:05.192Z,43.93
2018-02-25T12:01:32.808Z,49.60
2018-02-25T12:04:00.406Z,45.03
2018-02-25T12:06:28.208Z,46.57
2018-02-25T12:08:56.928Z,46.00
2018-02-25T12:11:24.557Z,45.40
2018-02-25T12:13:53.028Z,43.37
2018-02-25T12:16:21.505Z,49.40
2018-02-25T12:18:49.860Z,46.50
2018-02-25T12:21:17.558Z,42.70
2018-02-25T12:23:45.185Z,45.20
2018-02-25T12:26:12.762Z,44.10
2018-02-25T12:28:40.484Z,41.80
2018-02-25T12:31:08.062Z,44.30
2018-02-25T12:33:37.288Z,43.53
2018-02-25T12:36:05.639Z,41.30
2018-02-25T12:38:33.302Z,42.00
2018-02-25T12:41:06.498Z,39.63
2018-02-25T12:43:36.059Z,40.33
2018-02-25T12:46:06.901Z,42.17
2018-02-25T12:48:36.022Z,39.90
2018-02-25T12:51:05.202Z,38.97
2018-02-25T12:53:33.768Z,39.63
2018-02-25T12:56:03.713Z,37.37
2018-02-25T12:58:31.423Z,39.03
2018-02-25T13:00:59.017Z,40.17
2018-02-25T13:03:27.751Z,39.47
2018-02-25T13:05:56.784Z,36.47
2018-02-25T13:08:24.368Z,35.40
2018-02-25T13:10:52.355Z,34.57
2018-02-25T13:13:20.010Z,33.83
2018-02-25T13:15:48.527Z,37.33
2018-02-25T13:18:17.444Z,33.93
2018-02-25T13:20:45.145Z,36.00
2018-02-25T13:23:13.659Z,35.33
2018-02-25T13:25:41.881Z,34.03
2018-02-25T13:28:09.538Z,32.90
2018-02-25T13:30:37.152Z,34.20
2018-02-25T13:33:05.018Z,32.10
2018-02-25T13:35:32.836Z,32.13
2018-02-25T13:38:00.447Z,32.87
2018-02-25T13:40:28.077Z,32.97
2018-02-25T13:42:57.227Z,31.60
2018-02-25T13:45:26.129Z,30.57
2018-02-25T13:47:54.275Z,31.50
2018-02-25T13:50:24.286Z,31.90
2018-02-25T13:52:53.831Z,29.93
2018-02-25T13:55:21.551Z,31.67
2018-02-25T13:57:49.168Z,30.67
2018-02-25T14:00:16.835Z,30.97
2018-02-25T14:02:45.212Z,30.60
2018-02-25T14:05:14.954Z,29.83
2018-02-25T14:07:44.351Z,33.50
2018-02-25T14:10:13.241Z,30.07
2018-02-25T14:12:41.464Z,29.13
2018-02-25T14:15:11.531Z,28.33
2018-02-25T14:17:41.347Z,30.43
2018-02-25T14:20:12.080Z,30.30
2018-02-25T14:22:40.906Z,28.90
2018-02-25T14:25:10.055Z,30.43
2018-02-25T14:27:39.489Z,28.27
2018-02-25T14:30:08.970Z,27.93
2018-02-25T14:32:37.629Z,28.47
2018-02-25T14:35:05.309Z,25.47
2018-02-25T14:37:32.924Z,26.17
2018-02-25T14:40:01.349Z,24.63
2018-02-25T14:42:28.968Z,28.10
2018-02-25T14:44:58.324Z,24.87
2018-02-25T14:47:28.732Z,24.37
2018-02-25T14:49:58.193Z,26.53
2018-02-25T14:52:26.832Z,25.10
2018-02-25T14:54:56.624Z,26.27
2018-02-25T14:57:27.458Z,25.33
2018-02-25T14:59:58.601Z,25.03
2018-02-25T15:02:28.002Z,26.37
2018-02-25T15:04:56.883Z,25.63
2018-02-25T15:07:25.301Z,24.60
2018-02-25T15:09:57.386Z,24.03
2018-02-25T15:12:26.626Z,23.37
2018-02-25T15:14:55.519Z,23.27
2018-02-25T15:17:26.159Z,25.50
2018-02-25T15:19:56.982Z,23.20
2018-02-25T15:22:27.458Z,25.30
2018-02-25T15:24:57.018Z,21.73
2018-02-25T15:27:25.820Z,22.93
2018-02-25T15:29:55.505Z,21.67
2018-02-25T15:32:25.114Z,22.90
2018-02-25T15:34:55.320Z,22.97
2018-02-25T15:37:26.627Z,22.50
2018-02-25T15:39:56.081Z,22.23
2018-02-25T15:42:24.851Z,22.07
2018-02-25T15:44:54.265Z,23.07
2018-02-25T15:47:25.248Z,22.77
2018-02-25T15:49:54.550Z,20.77
2018-02-25T15:52:25.246Z,21.73
2018-02-25T15:54:54.226Z,20.70
2018-02-25T15:57:24.483Z,21.30
2018-02-25T15:59:54.377Z,19.17
2018-02-25T16:02:22.472Z,21.00
2018-02-25T16:04:51.061Z,19.67
2018-02-25T16:07:20.212Z,20.90
2018-02-25T16:09:48.755Z,19.93
2018-02-25T16:14:49.273Z,19.83
2018-02-25T16:17:17.130Z,19.57
2018-02-25T16:19:44.743Z,18.90
2018-02-25T16:22:12.486Z,19.67
2018-02-25T16:24:40.579Z,20.17
2018-02-25T16:27:09.320Z,17.43
2018-02-25T16:29:36.918Z,18.13
2018-02-25T16:32:04.758Z,18.60
2018-02-25T16:34:32.390Z,18.97
2018-02-25T16:37:01.005Z,17.50
2018-02-25T16:39:28.583Z,18.57
2018-02-25T16:41:56.168Z,17.20
2018-02-25T16:44:24.207Z,17.50
2018-02-25T16:48:09.249Z,17.70
2018-02-25T16:50:38.443Z,18.27
2018-02-25T16:53:06.891Z,17.10
2018-02-25T16:55:34.707Z,19.00
2018-02-25T16:58:02.329Z,17.83
2018-02-25T17:00:29.984Z,16.67
2018-02-25T17:02:57.611Z,18.07
2018-02-25T17:05:25.233Z,17.67
2018-02-25T17:07:52.991Z,17.50
2018-02-25T17:10:21.221Z,17.43
2018-02-25T17:12:49.010Z,17.00
2018-02-25T17:15:17.603Z,15.73
2018-02-25T17:17:46.024Z,16.53
2018-02-25T17:20:13.682Z,14.27
2018-02-25T17:22:41.343Z,16.43
2018-02-25T17:25:08.984Z,15.03
2018-02-25T17:27:36.561Z,14.90
2018-02-25T17:30:04.230Z,15.27
2018-02-25T17:32:31.876Z,15.83
2018-02-25T17:34:59.472Z,14.43
2018-02-25T17:37:27.069Z,15.37
2018-02-25T17:39:55.565Z,13.10
2018-02-25T17:42:23.109Z,14.83
2018-02-25T17:44:50.704Z,15.40
2018-02-25T17:47:18.286Z,15.37
2018-02-25T17:49:45.887Z,13.87
2018-02-25T17:52:13.511Z,14.20
2018-02-25T17:54:41.132Z,14.93
2018-02-25T17:57:08.712Z,13.67
2018-02-25T17:59:36.327Z,14.90
2018-02-25T18:02:04.699Z,14.33
2018-02-25T18:04:32.411Z,12.47
2018-02-25T18:07:00.041Z,13.03
2018-02-25T18:09:27.645Z,13.90
2018-02-25T18:11:55.338Z,15.43
2018-02-25T18:14:23.742Z,14.37
2018-02-25T18:16:51.396Z,14.13
2018-02-25T18:19:19.064Z,14.43
2018-02-25T18:21:46.701Z,13.67
2018-02-25T18:24:14.394Z,13.50
2018-02-25T18:26:42.011Z,12.53
2018-02-25T18:29:10.574Z,13.43
2018-02-25T18:31:38.312Z,13.17
2018-02-25T18:34:05.977Z,13.10
2018-02-25T18:36:33.598Z,12.97
2018-02-25T18:39:01.327Z,12.40
2018-02-25T18:41:29.796Z,12.87
2018-02-25T18:43:57.397Z,11.80
2018-02-25T18:46:25.096Z,11.37
2018-02-25T18:48:52.729Z,11.07
2018-02-25T18:51:21.831Z,13.27
2018-02-25T18:53:50.272Z,12.47
2018-02-25T18:56:18.608Z,12.37
2018-02-25T18:58:47.462Z,11.17
2018-02-25T19:01:15.123Z,12.20
2018-02-25T19:03:42.824Z,16.63
2018-02-25T19:06:10.382Z,10.13
2018-02-25T19:08:39.152Z,13.93
2018-02-25T19:11:06.798Z,11.30
2018-02-25T19:13:34.387Z,12.87
2018-02-25T19:16:01.952Z,11.10
2018-02-25T19:18:29.540Z,10.50
2018-02-25T19:20:57.116Z,11.60
2018-02-25T19:23:24.725Z,10.57
2018-02-25T19:25:53.373Z,10.60
2018-02-25T19:28:22.057Z,11.47
2018-02-25T19:30:49.928Z,11.83
2018-02-25T19:33:17.507Z,12.73
2018-02-25T19:35:50.879Z,14.70
2018-02-25T19:38:24.574Z,13.90
2018-02-25T19:40:57.842Z,13.43
2018-02-25T19:43:25.518Z,13.33
2018-02-25T19:45:53.333Z,13.30
2018-02-25T19:48:21.740Z,12.30
2018-02-25T19:50:49.444Z,12.60
2018-02-25T19:53:17.316Z,10.63
2018-02-25T19:55:44.917Z,13.17
2018-02-25T19:58:12.493Z,10.83
2018-02-25T20:00:40.464Z,11.20
2018-02-25T20:03:08.079Z,14.13
2018-02-25T20:05:35.673Z,9.80
2018-02-25T20:08:03.268Z,11.20
2018-02-25T20:10:31.247Z,9.83
2018-02-25T20:12:59.594Z,11.13
2018-02-25T20:15:29.740Z,8.77
2018-02-25T20:17:58.399Z,9.07
2018-02-25T20:20:26.979Z,9.57
2018-02-25T20:22:56.350Z,10.03
2018-02-25T20:25:24.863Z,9.33
2018-02-25T20:27:53.440Z,8.77
2018-02-25T20:30:22.027Z,9.83
2018-02-25T20:32:50.713Z,8.93
2018-02-25T20:35:19.696Z,10.67
2018-02-25T20:37:48.757Z,9.70
2018-02-25T20:40:16.488Z,8.10
2018-02-25T20:42:45.534Z,9.20
2018-02-25T20:45:13.229Z,8.43
2018-02-25T20:47:41.998Z,8.63
2018-02-25T20:50:11.292Z,8.47
2018-02-25T20:52:40.146Z,7.77
2018-02-25T20:55:08.861Z,8.50
2018-02-25T20:57:38.141Z,7.20
2018-02-25T21:00:06.381Z,9.20
2018-02-25T21:02:35.736Z,7.50
2018-02-25T21:05:03.876Z,9.53
2018-02-25T21:07:32.713Z,8.67
2018-02-25T21:10:01.071Z,8.70
2018-02-25T21:12:29.732Z,9.23
2018-02-25T21:14:58.474Z,7.60
2018-02-25T21:17:27.744Z,7.57
2018-02-25T21:19:56.932Z,8.03
2018-02-25T21:22:26.128Z,7.60
2018-02-25T21:24:54.443Z,7.67
2018-02-25T21:27:22.676Z,7.10
2018-02-25T21:29:50.692Z,9.43
2018-02-25T21:32:18.751Z,8.03
2018-02-25T21:34:47.288Z,6.00
2018-02-25T21:37:15.328Z,8.00
2018-02-25T21:39:43.400Z,7.17
2018-02-25T21:42:11.515Z,7.43
2018-02-25T21:44:39.585Z,8.07
2018-02-25T21:47:08.609Z,8.20
2018-02-25T21:49:36.746Z,7.80
2018-02-25T21:52:04.775Z,7.10
2018-02-25T21:54:38.339Z,6.87
2018-02-25T21:57:12.101Z,8.93
2018-02-25T21:59:45.978Z,6.23
2018-02-25T22:02:19.931Z,6.67
2018-02-25T22:04:49.431Z,6.80
2018-02-25T22:07:19.235Z,7.07
2018-02-25T22:09:47.428Z,6.63
2018-02-25T22:12:16.611Z,6.40
2018-02-25T22:14:45.605Z,6.60
2018-02-25T22:17:14.165Z,7.60
2018-02-25T22:19:41.759Z,6.00
2018-02-25T22:22:09.383Z,5.87
2018-02-25T22:24:38.294Z,6.77
2018-02-25T22:27:06.980Z,5.47
2018-02-25T22:29:34.599Z,6.87
2018-02-25T22:32:03.824Z,6.33
2018-02-25T22:34:33.208Z,7.33
2018-02-25T22:37:03.106Z,5.70
2018-02-25T22:39:32.231Z,6.70
2018-02-25T22:42:02.356Z,7.00
2018-02-25T22:44:31.328Z,5.90
2018-02-25T22:46:59.811Z,5.73
2018-02-25T22:49:27.443Z,6.20
2018-02-25T22:51:57.412Z,6.10
2018-02-25T22:54:25.808Z,7.27
2018-02-25T22:56:54.052Z,7.07
2018-02-25T22:59:25.029Z,5.40
2018-02-25T23:01:53.359Z,5.80
2018-02-25T23:04:22.767Z,5.57
2018-02-25T23:06:52.932Z,5.97
2018-02-25T23:09:23.098Z,6.47
2018-02-25T23:11:51.476Z,5.90
2018-02-25T23:14:20.890Z,6.53
2018-02-25T23:16:51.905Z,5.40
2018-02-25T23:19:19.785Z,4.60
2018-02-25T23:21:47.893Z,5.33
2018-02-25T23:24:16.036Z,6.10
2018-02-25T23:26:44.784Z,5.53
2018-02-25T23:29:13.806Z,6.33
2018-02-25T23:31:42.286Z,5.00
2018-02-25T23:34:11.746Z,5.80
2018-02-25T23:36:41.254Z,6.07
2018-02-25T23:39:10.099Z,5.63
2018-02-25T23:41:39.167Z,5.83
2018-02-25T23:44:09.501Z,5.50
2018-02-25T23:46:38.783Z,5.53
2018-02-25T23:49:07.332Z,5.23
2018-02-25T23:51:35.749Z,5.40
2018-02-25T23:54:03.471Z,5.57
2018-02-25T23:56:32.916Z,5.17
2018-02-25T23:59:00.510Z,5.17
